KPSK Airport Information

Runway Information
Runway 06 Length 6201 ft width 150 ft
Elevation 2105 ft Threshold 0 ft Heading 52
Runway 24 Length 6201 ft Width 150 ft
Elevation 2073 ft Threshold 0 ft Heading 232
Airport Frequencies
Type A/D Name ROANOKE AP Frequency 126 MHZ
Type AWOS Name AWOS 3 Frequency 127.375 MHZ
Type CLD Name CLNC DEL Frequency 121.7 MHZ
Type RDO Name LEESBURG R Frequency 122.3 MHZ
Type UNIC Name CTAF/UNICO Frequency 122.7 MHZ
Airport Navaids
Airport Weather Information & NOTAM
ADDS - METARS form results

(0712 UTC 18 May 2021)
Data provider http://aviationweather.gov/metar/data/
 
METAR text: KPSK 180655Z AUTO 00000KT 1/4SM FG OVC003 12/12 A3035 RMK AO2 T01150115
Conditions at: KPSK (DUBLIN/NEW RIV , VA, US) observed 0655 UTC 18 May 2021
Temperature: 11.5°C (53°F)
Dewpoint: 11.5°C (53°F) [RH = 100%]
Pressure (altimeter): 30.35 inches Hg (1027.9 mb)
Winds: calm
Visibility: 0.25 miles (0.40 km)
Ceiling: 300 feet AGL
Clouds: overcast cloud deck at 300 feet AGL
Weather: FG  (fog)

METAR text: KPSK 180635Z AUTO 00000KT 1/4SM FG OVC003 12/12 A3035 RMK AO2 T01160116
Conditions at: KPSK (DUBLIN/NEW RIV , VA, US) observed 0635 UTC 18 May 2021
Temperature: 11.6°C (53°F)
Dewpoint: 11.6°C (53°F) [RH = 100%]
Pressure (altimeter): 30.35 inches Hg (1027.9 mb)
Winds: calm
Visibility: 0.25 miles (0.40 km)
Ceiling: 300 feet AGL
Clouds: overcast cloud deck at 300 feet AGL
Weather: FG  (fog)